Coronel Bogado, Argentina
Current Conditions -  °F | °C
As of 4:00 PM on Friday 24 Oct 2014 (Local Time) from SAAR Reporting Station
Clear Clear  
Wind Chill: 88°   Ceiling: Unl
Heat Index: 88°   Visibility: 6mi
Dew Point: 61°   Wind: 9mph
Humidity: 40%   Direction: 70°ENE
Pressure: 29.88"   Gusts: NA
Location:  33.4°S, 60.55°W
Report Text: SAAR 241900Z 07008KT CAVOK 31/16 Q1012
Loading
Personal Weather Stations






























Interactive Weather Map
Tropical Storm Tracking
New forecast layout! Learn more

10-Day Weather Forecast

Advertisements
Track Severe Weather on mobile